West Vancouver, British Columbia

2:14 PM PDT on August 21, 2014 (GMT -0700)
West Haven Wynd | Change Station
CLOSE
Current Station
Personal Weather Station
Location: West Vancouver, BRITISH COLUMBIA
Elevation: 350 ft
Nearby Weather Stations

Elev 350 ft 49.36 °N, 123.26 °W | Updated 21 minutes ago

Partly Cloudy
Partly Cloudy
69.4 °F
Feels Like 69.4 °F
N
4.7
Wind Variable Wind from SE

Today is forecast to be nearly the same temperature as yesterday.

Today
High -- | Low -- °F
--% Chance of Precip.
Yesterday
High -- | Low -- °F
Precip. -- in
6:13 AM 8:17 PM
Waning Crescent, 12% visible
Pressure 30.01 in
Visibility 20.0 miles
Clouds Few 3000 ft
Dew Point 59 °F
Humidity 69%
Rainfall 0.00 in
Snow Depth Not available.
UV 7 out of 12
Pollen Not available.
Air Quality Not available.
Flu Activity Not available.
METAR CYVR 212100Z 22010KT 20SM FEW030 20/15 A3000 RMK CU1 TCU ASOCT / TR AC SLP160 DENSITY ALT 500FT

More Conditions Fewer Conditions

Pressure 30.01 in
Visibility 20.0 miles
Clouds Few 3000 ft
Dew Point 59 °F
Humidity 69%
Rainfall 0.00 in
Snow Depth Not available.
UV 7 out of 12
Pollen Not available.
Air Quality Not available.
Flu Activity Not available.
METAR CYVR 212100Z 22010KT 20SM FEW030 20/15 A3000 RMK CU1 TCU ASOCT / TR AC SLP160 DENSITY ALT 500FT

More Conditions Fewer Conditions

10-Day Weather Forecast

Almanac

Astronomy

Aug. 21, 2014 Rise Set
Actual Time 6:13 AM PDT 8:17 PM PDT
Civil Twilight 5:38 AM PDT 8:51 PM PDT
Nautical Twilight 4:55 AM PDT 9:34 PM PDT
Astronomical Twilight 4:07 AM PDT 10:22 PM PDT
Moon 2:39 AM PDT 5:57 PM PDT
Length of Visible Light 15h 13m
Length of Day
14h 04m
Tomorrow will be 3m 24s shorter.
Waning Crescent, 12% of the Moon is Illuminated
Today
Waning Crescent
Aug 25
New
Sep 2
First Quarter
Sep 8
Full
Sep 15
Last Quarter

Today's Extremes

Country Highs Country Lows

Community

WunderPhotos

Upload Photos

1,746,019 photos uploaded!

WunderBlogs® & News

Nearby

Snow Depth

Not available.

Earthquake Activity

City Distance Mag. Time & Date
No recent earthquake activity has been reported nearby.
Minimum magnitude displayed is 2.5.

Coastal Water Temperatures

Place Temperature
No Stations Reporting

Nearby Weather Stations